Time;durP1;ratioP1;P1;durP2;ratioP2;P2;SDS_P1;SDS_P2;PMS_P1;PMS_P2;Temp;Humidity;BMP_temperature;BMP_pressure;BME280_temperature;BME280_humidity;BME280_pressure;Samples;Min_cycle;Max_cycle;Signal;HPM_P1;HPM_P2
2022/09/05 00:02:41;;;;;;;21.40;20.20;;;17.60;85.40;;;;;;5106447;28;20485;-71
2022/09/05 00:05:37;;;;;;;20.97;19.87;;;17.60;85.50;;;;;;5102104;28;20448;-72
2022/09/05 00:08:12;;;;;;;21.33;20.20;;;17.60;85.50;;;;;;5092633;27;21021;-72
2022/09/05 00:10:45;;;;;;;21.60;20.60;;;17.50;85.50;;;;;;5108149;27;20452;-72
2022/09/05 00:13:19;;;;;;;21.57;20.57;;;17.60;85.30;;;;;;5106417;28;20841;-72
2022/09/05 00:16:00;;;;;;;22.00;20.90;;;17.50;85.40;;;;;;5108192;28;20959;-71
2022/09/05 00:18:59;;;;;;;21.10;20.20;;;17.50;85.50;;;;;;5104920;27;20821;-71
2022/09/05 00:21:43;;;;;;;20.50;19.60;;;17.50;85.50;;;;;;5100810;27;20568;-72
2022/09/05 00:24:24;;;;;;;20.50;19.50;;;17.50;85.50;;;;;;5098650;27;20470;-72
2022/09/05 00:26:59;;;;;;;21.30;20.10;;;17.40;85.50;;;;;;5110104;28;20467;-72
2022/09/05 00:29:47;;;;;;;21.40;20.40;;;17.40;85.90;;;;;;5097615;27;20472;-72
2022/09/05 00:32:23;;;;;;;20.47;19.47;;;17.30;86.00;;;;;;5099920;28;21001;-72
2022/09/05 00:35:31;;;;;;;20.10;19.20;;;17.30;86.10;;;;;;5097233;28;20457;-72
2022/09/05 00:38:11;;;;;;;20.13;19.23;;;17.30;86.10;;;;;;5082005;27;20564;-72
2022/09/05 00:40:42;;;;;;;20.20;19.30;;;17.30;86.30;;;;;;5116674;27;20458;-72
2022/09/05 00:43:13;;;;;;;21.37;20.07;;;17.20;86.50;;;;;;5098651;28;20837;-72
2022/09/05 00:45:44;;;;;;;20.83;19.83;;;17.20;86.70;;;;;;5108318;28;20813;-73
2022/09/05 00:48:23;;;;;;;22.00;20.90;;;17.20;86.60;;;;;;5105902;28;21025;-72
2022/09/05 00:51:19;;;;;;;20.90;19.80;;;17.20;86.50;;;;;;5104992;28;20456;-72
2022/09/05 00:53:59;;;;;;;20.67;19.57;;;17.20;86.40;;;;;;5089772;28;20979;-72
2022/09/05 00:56:39;;;;;;;21.33;20.33;;;17.00;86.90;;;;;;5103031;28;20484;-72
2022/09/05 00:59:42;;;;;;;21.50;20.40;;;17.00;87.20;;;;;;5100461;27;20815;-72
2022/09/05 01:02:19;;;;;;;20.97;19.90;;;17.00;87.10;;;;;;5084736;28;21448;-72
2022/09/05 01:04:54;;;;;;;20.03;19.13;;;16.90;87.20;;;;;;5105751;28;20952;-72
2022/09/05 01:07:33;;;;;;;19.67;18.77;;;16.80;87.50;;;;;;5107037;28;20479;-72
2022/09/05 01:10:19;;;;;;;19.93;18.93;;;16.80;87.60;;;;;;5093732;28;20467;-72
2022/09/05 01:13:08;;;;;;;20.10;19.20;;;16.80;87.90;;;;;;5102054;28;20822;-74
2022/09/05 01:15:47;;;;;;;19.03;18.00;;;16.80;88.00;;;;;;5099778;28;20448;-72
2022/09/05 01:18:46;;;;;;;20.10;19.00;;;16.70;88.10;;;;;;5097432;28;20492;-73
2022/09/05 01:21:36;;;;;;;19.60;18.60;;;16.70;88.30;;;;;;5095938;27;20457;-73
2022/09/05 01:24:16;;;;;;;20.50;19.50;;;16.70;88.30;;;;;;5096387;28;20463;-72
2022/09/05 01:26:59;;;;;;;19.43;18.53;;;16.70;88.30;;;;;;5104391;28;20467;-72
2022/09/05 01:29:40;;;;;;;19.10;18.10;;;16.70;88.20;;;;;;5098747;28;20528;-72
2022/09/05 01:32:21;;;;;;;19.50;18.50;;;16.60;88.50;;;;;;5095026;28;20985;-74
2022/09/05 01:34:57;;;;;;;19.27;18.37;;;16.60;88.60;;;;;;5101960;28;20975;-72
2022/09/05 01:37:36;;;;;;;18.80;17.90;;;16.60;88.40;;;;;;5104324;28;20863;-71
2022/09/05 01:40:18;;;;;;;18.07;17.27;;;16.60;88.10;;;;;;5104995;27;20543;-72
2022/09/05 01:43:05;;;;;;;19.30;18.10;;;16.50;88.30;;;;;;5103239;28;21279;-72
2022/09/05 01:45:46;;;;;;;19.87;18.87;;;16.40;88.60;;;;;;5097932;28;20452;-72
2022/09/05 01:48:29;;;;;;;19.30;18.50;;;16.40;88.90;;;;;;5089868;28;20458;-72
2022/09/05 01:51:09;;;;;;;20.20;19.10;;;16.30;89.10;;;;;;5104601;28;20456;-72
2022/09/05 01:53:42;;;;;;;17.63;16.80;;;16.40;88.60;;;;;;5090403;28;20818;-74
2022/09/05 01:56:33;;;;;;;18.57;17.60;;;16.30;89.10;;;;;;5103647;28;20459;-72
2022/09/05 01:59:16;;;;;;;19.20;18.30;;;16.30;89.30;;;;;;5094286;28;20456;-74
2022/09/05 02:02:06;;;;;;;18.30;17.20;;;16.20;89.50;;;;;;5104158;28;20480;-72
2022/09/05 02:04:58;;;;;;;18.17;17.27;;;16.20;89.20;;;;;;5105692;28;20452;-72
2022/09/05 02:07:37;;;;;;;18.37;17.47;;;16.20;89.40;;;;;;5104218;28;21179;-72
2022/09/05 02:10:33;;;;;;;19.03;17.87;;;16.20;89.70;;;;;;5104113;28;20459;-71
2022/09/05 02:13:11;;;;;;;21.43;20.43;;;16.20;89.70;;;;;;5100748;28;20497;-72
2022/09/05 02:15:45;;;;;;;19.17;18.10;;;16.20;89.80;;;;;;5107252;28;20956;-72
2022/09/05 02:18:18;;;;;;;18.07;17.17;;;16.10;89.80;;;;;;5108645;28;20488;-72
2022/09/05 02:20:51;;;;;;;20.40;19.07;;;16.10;90.00;;;;;;5103986;28;20547;-72
2022/09/05 02:23:36;;;;;;;21.23;20.23;;;16.10;90.10;;;;;;5110559;28;21072;-72
2022/09/05 02:26:06;;;;;;;22.20;21.17;;;16.10;90.10;;;;;;5106932;28;20920;-72
2022/09/05 02:28:43;;;;;;;17.80;16.90;;;16.00;90.10;;;;;;5098412;28;20453;-71
2022/09/05 02:31:16;;;;;;;18.90;17.83;;;16.10;90.10;;;;;;5109160;28;20878;-72
2022/09/05 02:33:51;;;;;;;19.77;18.77;;;16.10;90.10;;;;;;5103179;28;20973;-72
2022/09/05 02:36:29;;;;;;;18.67;17.57;;;16.00;90.10;;;;;;5109514;28;20543;-72
2022/09/05 02:39:02;;;;;;;22.03;21.03;;;16.00;90.20;;;;;;5101499;28;20999;-72
2022/09/05 02:41:34;;;;;;;18.53;17.63;;;16.00;90.10;;;;;;5108139;27;20472;-71
2022/09/05 02:44:08;;;;;;;18.10;17.10;;;16.00;90.10;;;;;;5100546;28;20531;-72
2022/09/05 02:46:45;;;;;;;18.50;17.40;;;16.00;90.00;;;;;;5111613;27;20459;-71
2022/09/05 02:49:18;;;;;;;18.47;17.47;;;16.00;89.90;;;;;;5100527;28;20483;-72
2022/09/05 02:51:51;;;;;;;17.73;16.93;;;16.00;90.10;;;;;;5108261;28;20551;-72
2022/09/05 02:54:23;;;;;;;19.23;18.00;;;16.00;90.10;;;;;;5106745;28;20448;-72
2022/09/05 02:57:03;;;;;;;20.30;18.70;;;16.00;90.00;;;;;;5106237;28;21048;-72
2022/09/05 02:59:45;;;;;;;19.77;18.47;;;16.10;89.90;;;;;;5105379;27;20482;-72
2022/09/05 03:02:23;;;;;;;18.63;17.73;;;16.10;89.90;;;;;;5107086;27;21135;-72
2022/09/05 03:04:55;;;;;;;18.80;17.80;;;16.00;90.10;;;;;;5106495;27;20901;-72
2022/09/05 03:07:41;;;;;;;20.57;19.47;;;16.10;90.00;;;;;;5102754;28;20757;-72
2022/09/05 03:10:22;;;;;;;19.13;18.30;;;16.10;90.00;;;;;;5104578;28;20478;-72
2022/09/05 03:13:37;;;;;;;19.00;18.10;;;16.10;90.00;;;;;;5109212;27;20567;-72
2022/09/05 03:16:46;;;;;;;21.57;20.50;;;16.20;89.80;;;;;;5072282;28;20647;-72
2022/09/05 03:19:47;;;;;;;18.83;17.83;;;16.20;89.60;;;;;;5099450;27;20527;-71
2022/09/05 03:22:43;;;;;;;38.97;37.23;;;16.20;89.50;;;;;;5102360;27;20560;-72
2022/09/05 03:25:52;;;;;;;21.03;19.63;;;16.30;89.30;;;;;;5098215;28;20742;-72
2022/09/05 03:29:16;;;;;;;26.10;24.70;;;16.20;89.20;;;;;;5101832;28;20467;-72
2022/09/05 03:32:01;;;;;;;48.97;46.80;;;16.20;89.20;;;;;;5043292;28;20540;-72
2022/09/05 03:34:52;;;;;;;44.40;42.20;;;16.20;89.20;;;;;;5039321;28;20530;-71
2022/09/05 03:37:58;;;;;;;43.87;41.90;;;16.20;89.10;;;;;;5095934;27;20524;-72
2022/09/05 03:40:50;;;;;;;53.13;50.93;;;16.20;89.00;;;;;;5100336;28;21016;-72
2022/09/05 03:43:51;;;;;;;47.87;45.90;;;16.20;89.20;;;;;;5105960;27;20623;-73
2022/09/05 03:46:33;;;;;;;34.13;32.60;;;16.10;89.30;;;;;;5104676;27;20462;-72
2022/09/05 03:49:16;;;;;;;27.90;26.43;;;16.10;89.50;;;;;;5104432;27;20547;-72
2022/09/05 03:51:50;;;;;;;39.83;37.97;;;16.10;89.60;;;;;;5106396;27;20480;-73
2022/09/05 03:54:47;;;;;;;20.00;19.00;;;16.00;89.60;;;;;;5092113;27;20568;-72
2022/09/05 03:57:35;;;;;;;20.80;19.67;;;16.00;89.50;;;;;;5101995;27;20471;-71
2022/09/05 04:00:19;;;;;;;27.50;26.17;;;16.00;89.60;;;;;;5103913;27;20480;-70
2022/09/05 04:03:09;;;;;;;20.90;19.80;;;15.90;89.80;;;;;;5097160;28;20471;-70
2022/09/05 04:05:40;;;;;;;26.73;25.53;;;15.90;90.10;;;;;;5101787;28;20536;-70
2022/09/05 04:08:13;;;;;;;21.27;20.30;;;15.90;90.00;;;;;;5105905;28;20649;-70
2022/09/05 04:10:52;;;;;;;33.27;31.87;;;15.90;90.10;;;;;;5100450;27;20479;-70
2022/09/05 04:13:26;;;;;;;40.17;37.97;;;15.80;90.20;;;;;;5109054;27;20502;-70
2022/09/05 04:16:03;;;;;;;39.33;37.63;;;15.80;90.10;;;;;;5104079;27;20772;-70
2022/09/05 04:18:38;;;;;;;27.53;25.97;;;15.80;90.30;;;;;;5105157;28;20460;-70
2022/09/05 04:21:12;;;;;;;22.53;21.23;;;15.90;90.10;;;;;;5107238;28;20468;-70
2022/09/05 04:23:48;;;;;;;49.87;47.77;;;15.90;90.10;;;;;;5090591;28;20897;-69
2022/09/05 04:26:46;;;;;;;42.03;40.30;;;15.90;90.10;;;;;;5104635;28;20543;-70
2022/09/05 04:29:19;;;;;;;42.87;40.97;;;15.90;90.20;;;;;;5104081;27;20459;-70
2022/09/05 04:31:54;;;;;;;21.15;20.02;;;15.80;90.10;;;;;;5105561;28;20478;-70
2022/09/05 04:34:38;;;;;;;21.47;19.90;;;16.10;89.30;;;;;;5096113;28;20654;-69
2022/09/05 04:37:06;;;;;;;23.17;21.97;;;16.10;89.20;;;;;;5098584;28;20463;-70
2022/09/05 04:39:34;;;;;;;39.90;38.10;;;16.00;89.40;;;;;;5109328;27;20451;-70
2022/09/05 04:42:20;;;;;;;20.00;18.70;;;15.90;89.70;;;;;;5098148;28;20571;-70
2022/09/05 04:44:53;;;;;;;27.50;26.10;;;15.90;89.70;;;;;;5099383;28;20485;-69
2022/09/05 04:47:24;;;;;;;49.20;46.50;;;16.10;89.10;;;;;;5105676;28;20205;-70
2022/09/05 04:49:57;;;;;;;33.27;31.77;;;16.00;89.20;;;;;;5099350;28;20840;-70
2022/09/05 04:52:57;;;;;;;20.90;19.63;;;15.90;89.50;;;;;;5099614;28;20473;-70
2022/09/05 04:55:27;;;;;;;32.67;31.03;;;15.90;89.70;;;;;;5102781;28;20467;-69
2022/09/05 04:57:58;;;;;;;22.40;21.20;;;15.90;89.90;;;;;;5106812;28;20461;-69
2022/09/05 05:00:37;;;;;;;18.20;17.10;;;15.90;90.00;;;;;;5094813;27;20452;-71
2022/09/05 05:03:11;;;;;;;37.37;35.47;;;15.90;90.00;;;;;;5104585;28;20559;-70
2022/09/05 05:05:54;;;;;;;25.77;24.27;;;15.90;89.90;;;;;;5104705;28;21207;-69
2022/09/05 05:08:27;;;;;;;17.17;16.27;;;15.90;89.80;;;;;;5104991;28;20514;-73
2022/09/05 05:10:59;;;;;;;25.23;23.83;;;16.00;89.80;;;;;;5103761;27;20455;-69
2022/09/05 05:13:31;;;;;;;33.67;31.93;;;16.10;89.70;;;;;;5105896;28;20503;-72
2022/09/05 05:16:03;;;;;;;27.07;25.77;;;16.10;89.60;;;;;;5105539;28;20467;-72
2022/09/05 05:18:33;;;;;;;19.37;18.37;;;16.10;89.50;;;;;;5102904;28;20560;-72
2022/09/05 05:21:03;;;;;;;38.50;36.80;;;16.30;89.20;;;;;;5106882;28;20463;-71
2022/09/05 05:23:37;;;;;;;21.00;20.00;;;16.40;89.00;;;;;;5099267;27;20457;-71
2022/09/05 05:26:07;;;;;;;24.90;23.30;;;16.50;88.50;;;;;;5106520;27;20459;-71
2022/09/05 05:28:48;;;;;;;23.60;22.20;;;16.60;88.20;;;;;;5101121;28;20328;-74
2022/09/05 05:31:19;;;;;;;25.90;24.60;;;16.70;87.60;;;;;;5098924;28;20453;-72
2022/09/05 05:33:49;;;;;;;24.93;23.73;;;16.70;87.40;;;;;;5105345;28;20467;-71
2022/09/05 05:36:23;;;;;;;37.90;36.13;;;16.70;87.40;;;;;;5105160;28;20942;-71
2022/09/05 05:38:55;;;;;;;21.17;19.97;;;16.80;87.10;;;;;;5097848;27;20553;-71
2022/09/05 05:41:27;;;;;;;38.50;36.63;;;16.80;87.00;;;;;;5102807;28;20475;-72
2022/09/05 05:43:56;;;;;;;24.48;23.17;;;16.90;86.80;;;;;;5103595;28;20821;-70
2022/09/05 05:46:34;;;;;;;27.20;26.00;;;17.00;86.10;;;;;;5100418;28;20201;-70
2022/09/05 05:49:19;;;;;;;31.10;29.60;;;16.90;86.10;;;;;;5101820;28;20461;-70
2022/09/05 05:51:52;;;;;;;22.17;20.97;;;16.90;86.30;;;;;;5105164;28;20468;-73
2022/09/05 05:54:28;;;;;;;23.47;22.27;;;17.00;86.40;;;;;;5102532;28;21005;-71
2022/09/05 05:57:49;;;;;;;39.57;37.50;;;17.10;86.20;;;;;;5105253;28;20480;-76
2022/09/05 06:00:23;;;;;;;36.43;34.53;;;17.20;86.00;;;;;;5033180;28;20455;-72
2022/09/05 06:03:42;;;;;;;40.60;38.70;;;17.30;85.50;;;;;;5094766;28;20479;-72
2022/09/05 06:06:27;;;;;;;28.23;26.67;;;17.30;85.10;;;;;;5105237;28;20456;-72
2022/09/05 06:09:34;;;;;;;26.20;24.70;;;17.40;85.10;;;;;;5105297;28;20547;-71
2022/09/05 06:13:02;;;;;;;26.57;25.00;;;17.60;84.70;;;;;;5084997;28;20496;-71
2022/09/05 06:16:04;;;;;;;29.17;27.60;;;17.60;84.60;;;;;;5105044;28;20957;-74
2022/09/05 06:19:06;;;;;;;28.70;27.10;;;17.70;84.50;;;;;;5090497;28;20487;-71
2022/09/05 06:22:06;;;;;;;37.27;35.40;;;17.80;84.10;;;;;;5106058;28;20484;-69
2022/09/05 06:25:06;;;;;;;27.30;25.60;;;17.90;83.70;;;;;;5101379;27;20556;-70
2022/09/05 06:27:44;;;;;;;29.60;28.23;;;18.00;83.50;;;;;;5073051;28;20791;-69
2022/09/05 06:30:18;;;;;;;41.77;39.77;;;18.10;83.30;;;;;;5105375;28;20452;-70
2022/09/05 06:33:07;;;;;;;33.93;32.23;;;18.20;83.10;;;;;;5104592;28;20903;-72
2022/09/05 06:35:49;;;;;;;40.70;38.77;;;18.30;82.70;;;;;;5107701;28;20996;-73
2022/09/05 06:38:46;;;;;;;28.50;27.10;;;18.40;82.40;;;;;;5106898;28;20479;-75
2022/09/05 06:41:30;;;;;;;41.10;39.20;;;18.50;82.10;;;;;;5104465;28;20461;-72
2022/09/05 06:44:34;;;;;;;35.60;33.43;;;18.70;81.60;;;;;;5105539;28;20460;-72
2022/09/05 06:47:06;;;;;;;32.20;30.67;;;18.90;81.20;;;;;;5105999;28;20455;-71
2022/09/05 06:49:46;;;;;;;44.47;42.40;;;19.00;80.50;;;;;;5106843;28;20467;-71
2022/09/05 06:52:38;;;;;;;29.17;27.57;;;19.20;80.10;;;;;;5107386;28;20472;-71
2022/09/05 06:55:40;;;;;;;42.93;40.67;;;19.30;79.60;;;;;;5105543;28;20468;-70
2022/09/05 06:58:40;;;;;;;50.13;47.53;;;19.40;78.80;;;;;;5106232;28;20452;-70
2022/09/05 07:01:10;;;;;;;39.87;37.60;;;19.30;79.00;;;;;;5082093;27;20475;-69
2022/09/05 07:04:09;;;;;;;33.67;32.03;;;19.30;79.10;;;;;;5106575;27;20463;-69
2022/09/05 07:07:00;;;;;;;31.93;30.43;;;19.50;78.70;;;;;;5108576;28;20472;-69
2022/09/05 07:09:37;;;;;;;32.60;31.10;;;19.70;78.20;;;;;;5105423;27;20480;-70
2022/09/05 07:12:17;;;;;;;37.87;35.90;;;19.90;77.60;;;;;;5108259;28;20472;-70
2022/09/05 07:14:56;;;;;;;30.60;29.00;;;20.00;77.40;;;;;;5097311;28;20989;-70
2022/09/05 07:17:36;;;;;;;41.40;39.40;;;20.20;76.90;;;;;;5109305;27;20543;-71
2022/09/05 07:20:12;;;;;;;36.60;34.90;;;20.30;76.50;;;;;;5105019;28;21557;-72
2022/09/05 07:22:49;;;;;;;45.60;43.40;;;20.50;76.20;;;;;;5101636;27;20483;-73
2022/09/05 07:25:18;;;;;;;32.83;31.07;;;20.50;75.50;;;;;;5108786;28;20488;-72
2022/09/05 07:27:51;;;;;;;48.43;45.73;;;20.60;75.40;;;;;;5108721;28;20469;-69
2022/09/05 07:30:19;;;;;;;45.53;43.17;;;20.70;75.20;;;;;;5098035;27;20548;-68
2022/09/05 07:32:49;;;;;;;46.80;43.70;;;20.90;74.40;;;;;;5109621;28;20485;-68
2022/09/05 07:35:21;;;;;;;45.80;43.23;;;21.00;74.20;;;;;;5107524;28;20475;-69
2022/09/05 07:38:00;;;;;;;35.83;34.03;;;21.10;73.90;;;;;;5109482;27;20532;-72
2022/09/05 07:40:29;;;;;;;45.87;43.60;;;21.10;73.80;;;;;;5099229;28;20857;-69
2022/09/05 07:43:00;;;;;;;34.40;32.70;;;21.20;73.30;;;;;;5106780;28;20530;-68
2022/09/05 07:45:32;;;;;;;43.23;41.13;;;21.30;73.20;;;;;;5110477;28;20448;-69
2022/09/05 07:48:03;;;;;;;40.10;38.10;;;21.40;73.00;;;;;;5110665;28;20894;-68
2022/09/05 07:50:31;;;;;;;37.10;35.43;;;21.40;72.60;;;;;;5103805;28;21061;-69
2022/09/05 07:53:03;;;;;;;43.10;40.93;;;21.50;72.20;;;;;;5108862;28;20593;-69
2022/09/05 07:55:34;;;;;;;37.97;35.97;;;21.60;72.10;;;;;;5100533;28;20483;-69
2022/09/05 07:58:06;;;;;;;38.03;35.97;;;21.80;71.80;;;;;;5106345;28;20967;-73
2022/09/05 08:00:34;;;;;;;44.20;42.00;;;21.90;71.60;;;;;;5099276;28;20495;-70
2022/09/05 08:03:12;;;;;;;50.87;48.10;;;22.00;71.40;;;;;;5103158;28;20487;-72
2022/09/05 08:05:43;;;;;;;40.47;38.33;;;22.20;71.20;;;;;;5107962;27;20466;-70
2022/09/05 08:08:14;;;;;;;38.70;36.90;;;22.20;71.00;;;;;;5103291;28;21106;-70
2022/09/05 08:10:47;;;;;;;38.50;36.50;;;22.40;70.50;;;;;;5106159;28;20552;-68
2022/09/05 08:13:17;;;;;;;39.47;37.50;;;22.40;70.40;;;;;;5108940;28;21318;-70
2022/09/05 08:15:47;;;;;;;45.67;43.17;;;22.60;70.20;;;;;;5111599;28;20531;-70
2022/09/05 08:18:18;;;;;;;49.63;46.90;;;22.80;69.60;;;;;;5116185;27;20455;-69
2022/09/05 08:20:50;;;;;;;38.53;36.20;;;22.90;68.90;;;;;;5099706;28;20613;-69
2022/09/05 08:23:38;;;;;;;52.20;49.37;;;23.00;68.60;;;;;;5104027;28;20840;-71
2022/09/05 08:26:10;;;;;;;43.37;41.30;;;23.10;68.70;;;;;;5109932;28;21009;-72
2022/09/05 08:28:52;;;;;;;35.07;33.47;;;23.30;68.50;;;;;;5105592;28;20524;-74
2022/09/05 08:31:34;;;;;;;34.77;32.83;;;23.30;68.30;;;;;;5105507;28;20574;-72
2022/09/05 08:34:03;;;;;;;47.00;44.83;;;23.40;67.80;;;;;;5099162;28;20481;-72
2022/09/05 08:36:37;;;;;;;40.90;39.03;;;23.60;67.20;;;;;;5106743;27;20453;-72
2022/09/05 08:39:09;;;;;;;49.50;47.00;;;23.60;67.10;;;;;;5097872;28;20489;-73
2022/09/05 08:41:48;;;;;;;36.90;35.00;;;23.70;66.80;;;;;;5109385;28;20476;-70
2022/09/05 08:44:19;;;;;;;32.73;31.13;;;23.80;66.30;;;;;;5101736;28;20453;-75
2022/09/05 08:46:52;;;;;;;38.17;36.43;;;23.90;66.10;;;;;;5107797;28;20547;-70
2022/09/05 08:49:39;;;;;;;45.00;42.50;;;24.00;66.10;;;;;;5097694;28;20489;-70
2022/09/05 08:52:11;;;;;;;45.87;43.87;;;24.10;65.80;;;;;;5108265;28;20999;-71
2022/09/05 08:54:53;;;;;;;34.40;32.90;;;24.20;65.10;;;;;;5108278;28;20468;-71
2022/09/05 08:57:43;;;;;;;43.77;41.40;;;24.30;65.00;;;;;;5109496;28;20872;-71
2022/09/05 09:00:13;;;;;;;40.37;38.50;;;24.30;65.00;;;;;;5107703;28;20477;-71
2022/09/05 09:03:03;;;;;;;51.80;49.17;;;24.40;64.60;;;;;;5107152;28;20587;-71
2022/09/05 09:06:05;;;;;;;52.40;49.87;;;24.70;64.10;;;;;;5099276;28;20536;-73
2022/09/05 09:08:44;;;;;;;40.43;38.73;;;24.80;63.80;;;;;;5103375;28;20509;-72
2022/09/05 09:11:24;;;;;;;49.63;46.93;;;24.80;63.70;;;;;;5104600;28;20521;-72
2022/09/05 09:13:55;;;;;;;38.17;36.37;;;24.90;63.60;;;;;;5102819;28;20495;-70
2022/09/05 09:16:33;;;;;;;41.70;39.80;;;24.90;63.60;;;;;;5104319;28;20460;-74
2022/09/05 09:19:12;;;;;;;51.23;48.87;;;25.00;63.70;;;;;;5104106;27;20897;-73
2022/09/05 09:21:46;;;;;;;37.93;35.73;;;25.10;63.40;;;;;;5101924;28;21056;-73
2022/09/05 09:24:24;;;;;;;44.67;42.60;;;25.20;63.30;;;;;;5103088;28;20479;-72
2022/09/05 09:26:57;;;;;;;38.10;36.17;;;25.30;63.20;;;;;;5106547;28;20452;-74
2022/09/05 09:29:25;;;;;;;45.00;43.03;;;25.40;63.10;;;;;;5102907;28;20500;-74
2022/09/05 09:32:06;;;;;;;53.30;50.40;;;25.40;63.20;;;;;;5101842;28;20993;-76
2022/09/05 09:34:49;;;;;;;42.07;40.17;;;25.50;63.00;;;;;;5100101;28;20480;-73
2022/09/05 09:37:57;;;;;;;43.03;41.13;;;25.60;62.80;;;;;;5105813;28;20466;-77
2022/09/05 09:40:47;;;;;;;37.60;36.00;;;25.70;62.30;;;;;;5106121;28;20505;-71
2022/09/05 09:43:26;;;;;;;38.60;36.50;;;25.80;61.90;;;;;;5101829;27;20472;-74
2022/09/05 09:46:05;;;;;;;47.40;45.20;;;26.00;61.50;;;;;;5102185;27;20453;-74
2022/09/05 09:49:07;;;;;;;54.47;51.67;;;26.00;61.50;;;;;;5103055;28;20471;-75
2022/09/05 09:51:59;;;;;;;43.37;41.47;;;26.10;62.10;;;;;;5104594;28;20480;-72
2022/09/05 09:54:54;;;;;;;46.63;44.43;;;26.10;61.90;;;;;;5104236;28;20545;-71
2022/09/05 09:57:56;;;;;;;46.00;43.80;;;26.20;59.40;;;;;;5095651;27;20541;-72
2022/09/05 10:00:30;;;;;;;39.20;37.30;;;26.10;59.10;;;;;;5103903;28;20456;-74
2022/09/05 10:03:30;;;;;;;51.10;48.53;;;25.90;60.20;;;;;;5106606;28;21015;-71
2022/09/05 10:06:30;;;;;;;42.60;40.50;;;26.00;60.70;;;;;;5096923;28;20535;-72
2022/09/05 10:09:21;;;;;;;43.03;40.57;;;26.10;60.40;;;;;;5104908;28;20467;-72
2022/09/05 10:12:30;;;;;;;38.57;36.77;;;26.20;60.30;;;;;;5104222;28;21055;-72
2022/09/05 10:15:03;;;;;;;48.27;45.87;;;26.40;59.30;;;;;;5096490;28;20626;-73
2022/09/05 10:18:01;;;;;;;51.57;48.80;;;26.40;58.50;;;;;;5098886;28;20464;-71
2022/09/05 10:20:50;;;;;;;48.17;45.87;;;26.40;59.30;;;;;;5104548;28;21161;-72
2022/09/05 10:23:47;;;;;;;48.73;45.73;;;26.60;55.30;;;;;;5101140;28;20472;-75
2022/09/05 10:27:05;;;;;;;56.87;53.90;;;26.70;57.70;;;;;;5099639;28;20456;-71
2022/09/05 10:29:45;;;;;;;53.17;50.60;;;26.80;56.40;;;;;;5104632;28;20466;-74
2022/09/05 10:32:17;;;;;;;44.77;42.67;;;27.00;56.30;;;;;;5103105;28;20527;-73
2022/09/05 10:34:57;;;;;;;42.47;40.47;;;27.10;56.60;;;;;;5111712;27;20512;-78
2022/09/05 10:37:32;;;;;;;47.67;45.43;;;27.10;54.60;;;;;;5105594;28;20468;-76
2022/09/05 10:40:08;;;;;;;40.53;38.53;;;27.20;54.30;;;;;;5107681;28;20564;-72
2022/09/05 10:42:38;;;;;;;48.90;46.23;;;27.30;54.50;;;;;;5112114;28;20583;-73
2022/09/05 10:45:14;;;;;;;49.50;46.90;;;27.40;55.10;;;;;;5107754;27;20459;-72
2022/09/05 10:47:48;;;;;;;53.20;50.53;;;27.40;56.10;;;;;;5103067;27;20471;-70
2022/09/05 10:50:27;;;;;;;41.13;38.93;;;27.50;55.20;;;;;;5105611;28;20539;-74
2022/09/05 10:53:12;;;;;;;47.93;44.77;;;27.60;55.90;;;;;;5107492;27;20530;-74
2022/09/05 10:55:51;;;;;;;55.80;51.50;;;27.60;55.70;;;;;;5101542;28;20566;-75
2022/09/05 10:58:36;;;;;;;52.80;49.27;;;27.80;54.90;;;;;;5106599;28;20555;-71
2022/09/05 11:01:06;;;;;;;50.63;47.43;;;28.00;53.90;;;;;;5109942;28;20460;-72
2022/09/05 11:03:44;;;;;;;57.20;54.43;;;28.10;53.00;;;;;;5104583;28;20555;-73
2022/09/05 11:06:16;;;;;;;53.07;50.30;;;28.20;50.70;;;;;;5108668;28;21074;-73
2022/09/05 11:08:54;;;;;;;36.70;34.90;;;28.40;50.50;;;;;;5108010;27;20544;-73
2022/09/05 11:11:25;;;;;;;45.83;43.37;;;28.30;51.00;;;;;;5107564;28;20558;-73
2022/09/05 11:13:54;;;;;;;38.37;36.40;;;28.30;52.00;;;;;;5102498;27;20547;-74
2022/09/05 11:16:28;;;;;;;51.57;48.70;;;28.30;51.40;;;;;;5105332;27;20499;-72
2022/09/05 11:19:00;;;;;;;38.60;36.70;;;28.30;51.30;;;;;;5107542;28;20459;-71
2022/09/05 11:21:52;;;;;;;48.60;46.20;;;28.40;50.80;;;;;;5114146;27;20559;-72
2022/09/05 11:24:29;;;;;;;48.33;45.93;;;28.50;50.90;;;;;;5105764;28;20483;-71
2022/09/05 11:27:01;;;;;;;51.97;49.13;;;28.70;50.70;;;;;;5105579;28;20453;-70
2022/09/05 11:29:36;;;;;;;40.67;38.87;;;28.90;49.30;;;;;;5092914;28;20453;-71
2022/09/05 11:32:22;;;;;;;51.53;49.03;;;29.10;48.40;;;;;;5101153;28;20488;-72
2022/09/05 11:35:07;;;;;;;38.47;36.57;;;29.20;48.80;;;;;;5097470;27;20511;-71
2022/09/05 11:38:04;;;;;;;55.37;52.60;;;29.10;48.30;;;;;;5100344;28;20513;-71
2022/09/05 11:40:43;;;;;;;38.97;37.17;;;29.00;47.70;;;;;;5108709;27;20453;-71
2022/09/05 11:43:39;;;;;;;58.50;55.70;;;29.00;46.90;;;;;;5106964;28;20572;-74
2022/09/05 11:46:26;;;;;;;46.40;44.23;;;28.90;47.20;;;;;;5101232;28;21014;-71
2022/09/05 11:49:39;;;;;;;55.63;52.83;;;29.00;47.80;;;;;;5100230;28;21045;-71
2022/09/05 11:52:28;;;;;;;39.73;37.60;;;29.10;48.30;;;;;;5107257;27;20468;-70
2022/09/05 11:55:21;;;;;;;39.70;37.60;;;29.30;48.70;;;;;;5106725;28;20559;-73
2022/09/05 11:58:33;;;;;;;50.27;47.73;;;29.40;48.80;;;;;;5108039;28;20499;-71
2022/09/05 12:01:07;;;;;;;43.00;41.00;;;29.50;48.30;;;;;;5107927;27;20543;-71
2022/09/05 12:03:56;;;;;;;50.13;47.83;;;29.60;48.20;;;;;;5103755;28;20507;-71
2022/09/05 12:06:59;;;;;;;42.73;40.83;;;29.70;47.60;;;;;;5097943;27;20456;-69
2022/09/05 12:09:37;;;;;;;59.47;56.67;;;29.90;47.80;;;;;;5097879;28;20551;-69
2022/09/05 12:12:23;;;;;;;38.03;36.20;;;30.00;47.80;;;;;;5104892;28;20467;-69
2022/09/05 12:15:15;;;;;;;55.87;53.00;;;30.00;47.80;;;;;;5103948;27;20479;-69
2022/09/05 12:17:52;;;;;;;41.57;39.67;;;30.10;47.40;;;;;;5102707;28;20456;-69
2022/09/05 12:20:27;;;;;;;40.50;38.60;;;30.20;47.40;;;;;;5103796;28;20547;-69
2022/09/05 12:23:01;;;;;;;41.97;40.07;;;30.30;47.70;;;;;;5108658;28;20511;-69
2022/09/05 12:25:33;;;;;;;45.60;43.47;;;30.40;47.60;;;;;;5105101;28;20462;-70
2022/09/05 12:28:06;;;;;;;39.33;37.53;;;30.40;46.80;;;;;;5104911;28;20461;-69
2022/09/05 12:30:38;;;;;;;41.27;39.20;;;30.30;47.50;;;;;;5104122;28;20465;-70
2022/09/05 12:33:21;;;;;;;54.33;51.83;;;30.30;47.80;;;;;;5098048;28;20590;-69
2022/09/05 12:36:02;;;;;;;62.40;59.50;;;30.30;47.50;;;;;;5101502;28;20522;-71
2022/09/05 12:38:44;;;;;;;48.00;45.90;;;30.40;47.20;;;;;;5099860;28;20822;-72
2022/09/05 12:41:17;;;;;;;43.30;41.37;;;30.60;47.00;;;;;;5101261;28;20988;-70
2022/09/05 12:44:10;;;;;;;55.73;53.17;;;30.60;46.90;;;;;;5096708;28;20468;-71
2022/09/05 12:46:49;;;;;;;56.97;54.17;;;30.70;46.60;;;;;;5107780;28;20456;-71
2022/09/05 12:49:26;;;;;;;46.43;44.10;;;30.60;46.40;;;;;;5100459;27;20543;-72
2022/09/05 12:52:01;;;;;;;38.83;37.13;;;30.80;46.00;;;;;;5103573;28;20521;-71
2022/09/05 12:54:33;;;;;;;36.03;34.20;;;30.80;45.90;;;;;;5095938;28;20463;-73
2022/09/05 12:57:07;;;;;;;54.53;52.13;;;30.90;45.60;;;;;;5106858;28;21033;-71
2022/09/05 12:59:39;;;;;;;57.00;54.30;;;30.80;44.70;;;;;;5108586;28;20504;-73
2022/09/05 13:02:14;;;;;;;42.80;40.80;;;30.70;45.40;;;;;;5104790;28;20537;-71
2022/09/05 13:04:46;;;;;;;46.57;44.47;;;30.80;45.60;;;;;;5100493;28;20552;-71
2022/09/05 13:07:17;;;;;;;47.17;44.97;;;30.90;45.70;;;;;;5109818;27;20463;-71
2022/09/05 13:09:52;;;;;;;43.50;41.47;;;31.00;45.30;;;;;;5106636;28;20452;-71
2022/09/05 13:12:28;;;;;;;37.53;35.83;;;31.10;44.80;;;;;;5108288;28;20523;-73
2022/09/05 13:15:04;;;;;;;51.33;48.90;;;31.10;44.10;;;;;;5104150;28;20456;-73
2022/09/05 13:17:38;;;;;;;57.10;54.30;;;31.00;44.10;;;;;;5104555;27;20484;-69
2022/09/05 13:20:15;;;;;;;42.73;40.50;;;30.70;42.80;;;;;;5105985;27;20454;-69
2022/09/05 13:22:45;;;;;;;57.60;54.70;;;30.50;43.80;;;;;;5108678;28;20895;-69
2022/09/05 13:25:16;;;;;;;39.80;38.00;;;30.50;43.40;;;;;;5102416;28;20901;-69
2022/09/05 13:27:55;;;;;;;38.10;36.40;;;30.70;43.70;;;;;;5108533;28;20945;-69
2022/09/05 13:30:25;;;;;;;53.83;51.33;;;30.70;44.40;;;;;;5099238;28;20459;-73
2022/09/05 13:32:55;;;;;;;56.63;54.03;;;30.80;44.50;;;;;;5100285;28;20481;-74
2022/09/05 13:35:26;;;;;;;58.43;55.70;;;30.90;44.40;;;;;;5098804;28;20491;-73
2022/09/05 13:38:05;;;;;;;42.00;40.10;;;31.00;43.30;;;;;;5106839;27;20456;-71
2022/09/05 13:40:37;;;;;;;40.57;38.77;;;31.00;43.40;;;;;;5103648;28;20487;-72